sensor_id;sensor_type;location;lat;lon;timestamp;pressure;altitude;pressure_sealevel;temperature;humidity
65359;BME280;52491;45.900;6.346;2023-03-16T00:00:38;93868.03;;;23.48;24.77
65359;BME280;52491;45.900;6.346;2023-03-16T00:03:04;93865.34;;;23.48;24.98
65359;BME280;52491;45.900;6.346;2023-03-16T00:05:29;93865.59;;;23.46;24.91
65359;BME280;52491;45.900;6.346;2023-03-16T00:07:56;93862.94;;;23.46;24.90
65359;BME280;52491;45.900;6.346;2023-03-16T00:10:22;93862.41;;;23.44;24.71
65359;BME280;52491;45.900;6.346;2023-03-16T00:12:52;93862.66;;;23.43;24.68
65359;BME280;52491;45.900;6.346;2023-03-16T00:15:18;93864.25;;;23.44;24.72
65359;BME280;52491;45.900;6.346;2023-03-16T00:17:44;93863.47;;;23.43;24.75
65359;BME280;52491;45.900;6.346;2023-03-16T00:20:16;93861.88;;;23.42;24.80
65359;BME280;52491;45.900;6.346;2023-03-16T00:22:43;93864.59;;;23.53;24.65
65359;BME280;52491;45.900;6.346;2023-03-16T00:25:09;93863.53;;;23.54;24.53
65359;BME280;52491;45.900;6.346;2023-03-16T00:27:36;93864.31;;;23.54;24.46
65359;BME280;52491;45.900;6.346;2023-03-16T00:30:02;93870.72;;;23.53;24.54
65359;BME280;52491;45.900;6.346;2023-03-16T00:32:30;93873.38;;;23.53;24.54
65359;BME280;52491;45.900;6.346;2023-03-16T00:34:56;93868.06;;;23.53;24.28
65359;BME280;52491;45.900;6.346;2023-03-16T00:37:23;93874.41;;;23.52;24.49
65359;BME280;52491;45.900;6.346;2023-03-16T00:39:50;93872.28;;;23.49;24.51
65359;BME280;52491;45.900;6.346;2023-03-16T00:42:17;93876.56;;;23.50;24.58
65359;BME280;52491;45.900;6.346;2023-03-16T00:44:43;93874.94;;;23.49;24.48
65359;BME280;52491;45.900;6.346;2023-03-16T00:47:10;93881.06;;;23.50;24.42
65359;BME280;52491;45.900;6.346;2023-03-16T00:49:41;93890.66;;;23.51;24.33
65359;BME280;52491;45.900;6.346;2023-03-16T00:52:08;93874.13;;;23.49;24.29
65359;BME280;52491;45.900;6.346;2023-03-16T00:54:40;93872.53;;;23.48;24.46
65359;BME280;52491;45.900;6.346;2023-03-16T00:57:08;93877.06;;;23.47;24.34
65359;BME280;52491;45.900;6.346;2023-03-16T00:59:33;93866.16;;;23.49;24.57
65359;BME280;52491;45.900;6.346;2023-03-16T01:02:03;93865.88;;;23.45;24.41
65359;BME280;52491;45.900;6.346;2023-03-16T01:04:29;93870.66;;;23.43;24.40
65359;BME280;52491;45.900;6.346;2023-03-16T01:06:54;93865.31;;;23.43;24.47
65359;BME280;52491;45.900;6.346;2023-03-16T01:09:20;93866.38;;;23.42;24.28
65359;BME280;52491;45.900;6.346;2023-03-16T01:11:45;93858.66;;;23.40;24.33
65359;BME280;52491;45.900;6.346;2023-03-16T01:14:15;93859.44;;;23.41;24.38
65359;BME280;52491;45.900;6.346;2023-03-16T01:16:41;93853.34;;;23.40;24.45
65359;BME280;52491;45.900;6.346;2023-03-16T01:19:13;93858.41;;;23.42;24.35
65359;BME280;52491;45.900;6.346;2023-03-16T01:21:41;93849.63;;;23.41;24.35
65359;BME280;52491;45.900;6.346;2023-03-16T01:24:08;93844.31;;;23.41;24.28
65359;BME280;52491;45.900;6.346;2023-03-16T01:26:34;93844.56;;;23.40;24.20
65359;BME280;52491;45.900;6.346;2023-03-16T01:28:59;93840.81;;;23.41;24.40
65359;BME280;52491;45.900;6.346;2023-03-16T01:31:27;93840.03;;;23.40;24.27
65359;BME280;52491;45.900;6.346;2023-03-16T01:33:53;93833.91;;;23.40;24.24
65359;BME280;52491;45.900;6.346;2023-03-16T01:36:20;93833.91;;;23.40;24.33
65359;BME280;52491;45.900;6.346;2023-03-16T01:38:45;93839.22;;;23.40;24.31
65359;BME280;52491;45.900;6.346;2023-03-16T01:41:12;93843.75;;;23.39;24.46
65359;BME280;52491;45.900;6.346;2023-03-16T01:43:39;93834.16;;;23.38;24.23
65359;BME280;52491;45.900;6.346;2023-03-16T01:53:58;93827.00;;;23.39;24.30
65359;BME280;52491;45.900;6.346;2023-03-16T01:56:30;93815.53;;;23.38;24.22
65359;BME280;52491;45.900;6.346;2023-03-16T01:59:01;93809.97;;;23.40;24.25
65359;BME280;52491;45.900;6.346;2023-03-16T02:01:29;93818.75;;;23.40;24.22
65359;BME280;52491;45.900;6.346;2023-03-16T02:04:01;93801.75;;;23.41;24.31
65359;BME280;52491;45.900;6.346;2023-03-16T02:06:28;93808.09;;;23.40;24.31
65359;BME280;52491;45.900;6.346;2023-03-16T02:08:55;93808.91;;;23.41;24.14
65359;BME280;52491;45.900;6.346;2023-03-16T02:11:22;93801.75;;;23.41;24.19
65359;BME280;52491;45.900;6.346;2023-03-16T02:13:48;93803.06;;;23.44;23.94
65359;BME280;52491;45.900;6.346;2023-03-16T02:16:16;93797.75;;;23.44;24.15
65359;BME280;52491;45.900;6.346;2023-03-16T02:18:47;93792.41;;;23.44;24.13
65359;BME280;52491;45.900;6.346;2023-03-16T02:21:37;93796.16;;;23.43;24.05
65359;BME280;52491;45.900;6.346;2023-03-16T02:24:06;93779.38;;;23.42;24.12
65359;BME280;52491;45.900;6.346;2023-03-16T02:27:21;93779.94;;;23.44;24.19
65359;BME280;52491;45.900;6.346;2023-03-16T02:32:31;93778.59;;;23.42;24.04
65359;BME280;52491;45.900;6.346;2023-03-16T02:34:58;93775.66;;;23.43;24.16
65359;BME280;52491;45.900;6.346;2023-03-16T02:37:25;93779.94;;;23.44;24.16
65359;BME280;52491;45.900;6.346;2023-03-16T02:39:51;93778.88;;;23.45;23.98
65359;BME280;52491;45.900;6.346;2023-03-16T02:42:20;93770.88;;;23.45;24.01
65359;BME280;52491;45.900;6.346;2023-03-16T02:44:51;93771.69;;;23.46;24.06
65359;BME280;52491;45.900;6.346;2023-03-16T02:47:36;93775.13;;;23.46;24.05
65359;BME280;52491;45.900;6.346;2023-03-16T02:50:04;93774.34;;;23.46;23.88
65359;BME280;52491;45.900;6.346;2023-03-16T02:52:36;93782.31;;;23.46;24.16
65359;BME280;52491;45.900;6.346;2023-03-16T02:55:03;93778.88;;;23.45;24.04
65359;BME280;52491;45.900;6.346;2023-03-16T02:57:29;93783.13;;;23.46;24.04
65359;BME280;52491;45.900;6.346;2023-03-16T02:59:56;93776.75;;;23.48;23.96
65359;BME280;52491;45.900;6.346;2023-03-16T03:02:21;93776.22;;;23.45;23.88
65359;BME280;52491;45.900;6.346;2023-03-16T03:04:47;93778.88;;;23.45;23.79
65359;BME280;52491;45.900;6.346;2023-03-16T03:07:13;93784.97;;;23.46;23.99
65359;BME280;52491;45.900;6.346;2023-03-16T03:09:42;93788.19;;;23.48;23.86
65359;BME280;52491;45.900;6.346;2023-03-16T03:12:08;93791.94;;;23.47;24.01
65359;BME280;52491;45.900;6.346;2023-03-16T03:14:35;93789.50;;;23.45;24.09
65359;BME280;52491;45.900;6.346;2023-03-16T03:17:04;93793.25;;;23.44;24.10
65359;BME280;52491;45.900;6.346;2023-03-16T03:19:34;93785.78;;;23.46;23.84
65359;BME280;52491;45.900;6.346;2023-03-16T03:22:01;93793.75;;;23.46;23.96
65359;BME280;52491;45.900;6.346;2023-03-16T03:24:29;93793.75;;;23.46;23.98
65359;BME280;52491;45.900;6.346;2023-03-16T03:26:56;93792.72;;;23.48;24.03
65359;BME280;52491;45.900;6.346;2023-03-16T03:29:21;93791.09;;;23.46;23.90
65359;BME280;52491;45.900;6.346;2023-03-16T03:31:47;93803.38;;;23.48;23.94
65359;BME280;52491;45.900;6.346;2023-03-16T03:34:13;93793.53;;;23.48;24.01
65359;BME280;52491;45.900;6.346;2023-03-16T03:36:38;93806.03;;;23.48;23.92
65359;BME280;52491;45.900;6.346;2023-03-16T03:39:06;93808.41;;;23.49;23.87
65359;BME280;52491;45.900;6.346;2023-03-16T03:41:32;93803.88;;;23.50;23.91
65359;BME280;52491;45.900;6.346;2023-03-16T03:43:59;93798.03;;;23.48;23.84
65359;BME280;52491;45.900;6.346;2023-03-16T03:46:25;93803.09;;;23.49;24.00
65359;BME280;52491;45.900;6.346;2023-03-16T03:48:51;93799.91;;;23.47;24.03
65359;BME280;52491;45.900;6.346;2023-03-16T03:51:17;93802.56;;;23.47;23.98
65359;BME280;52491;45.900;6.346;2023-03-16T03:53:42;93798.84;;;23.48;24.00
65359;BME280;52491;45.900;6.346;2023-03-16T03:56:08;93806.81;;;23.48;24.08
65359;BME280;52491;45.900;6.346;2023-03-16T03:58:34;93804.97;;;23.49;23.98
65359;BME280;52491;45.900;6.346;2023-03-16T04:00:59;93804.97;;;23.49;23.93
65359;BME280;52491;45.900;6.346;2023-03-16T04:03:25;93806.03;;;23.48;23.94
65359;BME280;52491;45.900;6.346;2023-03-16T04:05:51;93813.72;;;23.49;24.04
65359;BME280;52491;45.900;6.346;2023-03-16T04:08:16;93817.19;;;23.50;24.01
65359;BME280;52491;45.900;6.346;2023-03-16T04:10:42;93813.22;;;23.47;23.93
65359;BME280;52491;45.900;6.346;2023-03-16T04:13:07;93804.41;;;23.46;23.94
65359;BME280;52491;45.900;6.346;2023-03-16T04:15:33;93810.56;;;23.47;23.90
65359;BME280;52491;45.900;6.346;2023-03-16T04:18:02;93812.38;;;23.46;23.94
65359;BME280;52491;45.900;6.346;2023-03-16T04:20:28;93807.06;;;23.46;24.11
65359;BME280;52491;45.900;6.346;2023-03-16T04:22:54;93805.22;;;23.47;23.95
65359;BME280;52491;45.900;6.346;2023-03-16T04:25:24;93814.81;;;23.48;23.97
65359;BME280;52491;45.900;6.346;2023-03-16T04:27:55;93803.88;;;23.50;24.01
65359;BME280;52491;45.900;6.346;2023-03-16T04:30:21;93803.09;;;23.49;23.89
65359;BME280;52491;45.900;6.346;2023-03-16T04:32:49;93805.75;;;23.49;24.12
65359;BME280;52491;45.900;6.346;2023-03-16T04:35:16;93799.63;;;23.49;23.94
65359;BME280;52491;45.900;6.346;2023-03-16T04:37:42;93795.91;;;23.50;23.92
65359;BME280;52491;45.900;6.346;2023-03-16T04:40:09;93800.19;;;23.51;24.02
65359;BME280;52491;45.900;6.346;2023-03-16T04:42:40;93795.91;;;23.50;24.05
65359;BME280;52491;45.900;6.346;2023-03-16T04:45:06;93790.34;;;23.51;23.96
65359;BME280;52491;45.900;6.346;2023-03-16T04:47:33;93793.78;;;23.52;24.17
65359;BME280;52491;45.900;6.346;2023-03-16T04:50:02;93790.09;;;23.53;24.05
65359;BME280;52491;45.900;6.346;2023-03-16T04:52:28;93794.34;;;23.54;24.18
65359;BME280;52491;45.900;6.346;2023-03-16T04:54:54;93795.94;;;23.55;24.19
65359;BME280;52491;45.900;6.346;2023-03-16T04:57:19;93793.28;;;23.55;23.97
65359;BME280;52491;45.900;6.346;2023-03-16T04:59:45;93800.22;;;23.56;24.16
65359;BME280;52491;45.900;6.346;2023-03-16T05:02:11;93815.34;;;23.55;24.04
65359;BME280;52491;45.900;6.346;2023-03-16T05:04:36;93814.31;;;23.56;24.17
65359;BME280;52491;45.900;6.346;2023-03-16T05:07:02;93807.94;;;23.57;24.19
65359;BME280;52491;45.900;6.346;2023-03-16T05:09:28;93792.75;;;23.58;24.21
65359;BME280;52491;45.900;6.346;2023-03-16T05:11:53;93789.06;;;23.59;24.23
65359;BME280;52491;45.900;6.346;2023-03-16T05:14:19;93781.06;;;23.59;24.03
65359;BME280;52491;45.900;6.346;2023-03-16T05:16:44;93776.78;;;23.58;24.08
65359;BME280;52491;45.900;6.346;2023-03-16T05:19:10;93780.00;;;23.60;24.37
65359;BME280;52491;45.900;6.346;2023-03-16T05:21:36;93778.94;;;23.61;23.91
65359;BME280;52491;45.900;6.346;2023-03-16T05:24:04;93786.13;;;23.60;24.08
65359;BME280;52491;45.900;6.346;2023-03-16T05:26:30;93783.22;;;23.62;24.26
65359;BME280;52491;45.900;6.346;2023-03-16T05:28:56;93778.94;;;23.61;24.12
65359;BME280;52491;45.900;6.346;2023-03-16T05:31:22;93782.41;;;23.61;24.20
65359;BME280;52491;45.900;6.346;2023-03-16T05:33:51;93780.78;;;23.60;24.06
65359;BME280;52491;45.900;6.346;2023-03-16T05:36:18;93781.59;;;23.61;24.14
65359;BME280;52491;45.900;6.346;2023-03-16T05:38:43;93780.53;;;23.62;24.05
65359;BME280;52491;45.900;6.346;2023-03-16T05:41:09;93780.53;;;23.62;24.05
65359;BME280;52491;45.900;6.346;2023-03-16T05:43:35;93779.47;;;23.63;24.14
65359;BME280;52491;45.900;6.346;2023-03-16T05:46:00;93776.03;;;23.62;24.06
65359;BME280;52491;45.900;6.346;2023-03-16T05:48:26;93782.13;;;23.63;24.30
65359;BME280;52491;45.900;6.346;2023-03-16T05:50:52;93774.16;;;23.63;24.38
65359;BME280;52491;45.900;6.346;2023-03-16T05:53:18;93776.28;;;23.56;24.74
65359;BME280;52491;45.900;6.346;2023-03-16T05:55:44;93774.63;;;23.50;24.99
65359;BME280;52491;45.900;6.346;2023-03-16T05:58:09;93776.47;;;23.49;24.88
65359;BME280;52491;45.900;6.346;2023-03-16T06:00:36;93776.75;;;23.48;24.99
65359;BME280;52491;45.900;6.346;2023-03-16T06:03:03;93777.56;;;23.48;24.94
65359;BME280;52491;45.900;6.346;2023-03-16T06:05:29;93778.09;;;23.50;25.00
65359;BME280;52491;45.900;6.346;2023-03-16T06:07:56;93771.16;;;23.49;25.00
65359;BME280;52491;45.900;6.346;2023-03-16T06:10:23;93768.25;;;23.51;25.04
65359;BME280;52491;45.900;6.346;2023-03-16T06:12:51;93774.91;;;23.53;25.08
65359;BME280;52491;45.900;6.346;2023-03-16T06:15:18;93775.72;;;23.54;25.23
65359;BME280;52491;45.900;6.346;2023-03-16T06:17:46;93781.84;;;23.54;25.20
65359;BME280;52491;45.900;6.346;2023-03-16T06:20:13;93794.91;;;23.56;25.38
65359;BME280;52491;45.900;6.346;2023-03-16T06:22:40;93803.41;;;23.58;25.49
65359;BME280;52491;45.900;6.346;2023-03-16T06:25:07;93794.63;;;23.57;25.36
65359;BME280;52491;45.900;6.346;2023-03-16T06:27:35;93803.41;;;23.58;25.30
65359;BME280;52491;45.900;6.346;2023-03-16T06:30:02;93801.28;;;23.60;25.27
65359;BME280;52491;45.900;6.346;2023-03-16T06:32:28;93799.41;;;23.60;25.37
65359;BME280;52491;45.900;6.346;2023-03-16T06:34:54;93793.31;;;23.60;25.32
65359;BME280;52491;45.900;6.346;2023-03-16T06:37:19;93794.88;;;23.61;25.23
65359;BME280;52491;45.900;6.346;2023-03-16T06:39:46;93797.03;;;23.59;24.91
65359;BME280;52491;45.900;6.346;2023-03-16T06:42:11;93787.72;;;23.56;25.08
65359;BME280;52491;45.900;6.346;2023-03-16T06:44:37;93799.16;;;23.57;25.41
65359;BME280;52491;45.900;6.346;2023-03-16T06:47:03;93797.28;;;23.57;25.46
65359;BME280;52491;45.900;6.346;2023-03-16T06:49:29;93794.38;;;23.59;25.42
65359;BME280;52491;45.900;6.346;2023-03-16T06:51:54;93794.38;;;23.59;25.32
65359;BME280;52491;45.900;6.346;2023-03-16T06:54:23;93790.09;;;23.58;25.54
65359;BME280;52491;45.900;6.346;2023-03-16T06:56:48;93789.84;;;23.59;25.14
65359;BME280;52491;45.900;6.346;2023-03-16T06:59:14;93785.31;;;23.60;25.27
65359;BME280;52491;45.900;6.346;2023-03-16T07:01:40;93783.22;;;23.62;25.25
65359;BME280;52491;45.900;6.346;2023-03-16T07:04:06;93788.53;;;23.62;25.13
65359;BME280;52491;45.900;6.346;2023-03-16T07:06:32;93780.53;;;23.62;25.26
65359;BME280;52491;45.900;6.346;2023-03-16T07:08:59;93779.47;;;23.63;25.28
65359;BME280;52491;45.900;6.346;2023-03-16T07:11:26;93776.03;;;23.62;25.18
65359;BME280;52491;45.900;6.346;2023-03-16T07:13:51;93779.47;;;23.63;25.37
65359;BME280;52491;45.900;6.346;2023-03-16T07:16:17;93770.69;;;23.62;25.47
65359;BME280;52491;45.900;6.346;2023-03-16T07:18:42;93761.91;;;23.62;25.29
65359;BME280;52491;45.900;6.346;2023-03-16T07:21:09;93768.03;;;23.62;25.48
65359;BME280;52491;45.900;6.346;2023-03-16T07:23:35;93769.91;;;23.62;25.04
65359;BME280;52491;45.900;6.346;2023-03-16T07:26:01;93772.56;;;23.62;25.59
65359;BME280;52491;45.900;6.346;2023-03-16T07:28:28;93761.13;;;23.61;25.32
65359;BME280;52491;45.900;6.346;2023-03-16T07:30:54;93761.91;;;23.62;25.59
65359;BME280;52491;45.900;6.346;2023-03-16T07:33:20;93754.47;;;23.64;25.34
65359;BME280;52491;45.900;6.346;2023-03-16T07:35:46;93761.41;;;23.65;25.35
65359;BME280;52491;45.900;6.346;2023-03-16T07:38:12;93757.66;;;23.66;25.44
65359;BME280;52491;45.900;6.346;2023-03-16T07:40:40;93760.06;;;23.67;25.60
65359;BME280;52491;45.900;6.346;2023-03-16T07:43:06;93758.22;;;23.68;25.49
65359;BME280;52491;45.900;6.346;2023-03-16T07:45:32;93750.22;;;23.68;25.28
65359;BME280;52491;45.900;6.346;2023-03-16T07:47:57;93757.13;;;23.69;25.32
65359;BME280;52491;45.900;6.346;2023-03-16T07:50:23;93758.50;;;23.72;25.31
65359;BME280;52491;45.900;6.346;2023-03-16T07:52:48;93761.97;;;23.72;25.56
65359;BME280;52491;45.900;6.346;2023-03-16T07:55:14;93766.78;;;23.75;25.48
65359;BME280;52491;45.900;6.346;2023-03-16T07:57:40;93766.25;;;23.73;25.44
65359;BME280;52491;45.900;6.346;2023-03-16T08:00:08;93770.50;;;23.74;25.54
65359;BME280;52491;45.900;6.346;2023-03-16T08:02:34;93765.19;;;23.74;25.37
65359;BME280;52491;45.900;6.346;2023-03-16T08:05:00;93757.78;;;23.86;25.13
65359;BME280;52491;45.900;6.346;2023-03-16T08:07:26;93758.06;;;23.90;25.45
65359;BME280;52491;45.900;6.346;2023-03-16T08:09:52;93744.97;;;23.83;25.36
65359;BME280;52491;45.900;6.346;2023-03-16T08:12:17;93744.97;;;23.78;25.54
65359;BME280;52491;45.900;6.346;2023-03-16T08:14:43;93740.69;;;23.77;25.37
65359;BME280;52491;45.900;6.346;2023-03-16T08:17:10;93741.50;;;23.78;25.84
65359;BME280;52491;45.900;6.346;2023-03-16T08:19:37;93741.25;;;23.79;25.50
65359;BME280;52491;45.900;6.346;2023-03-16T08:22:03;93735.91;;;23.79;25.47
65359;BME280;52491;45.900;6.346;2023-03-16T08:24:30;93744.69;;;23.80;25.47
65359;BME280;52491;45.900;6.346;2023-03-16T08:26:58;93743.66;;;23.81;25.41
65359;BME280;52491;45.900;6.346;2023-03-16T08:29:24;93736.47;;;23.81;25.40
65359;BME280;52491;45.900;6.346;2023-03-16T08:31:54;93746.03;;;23.82;25.57
65359;BME280;52491;45.900;6.346;2023-03-16T08:34:21;93743.66;;;23.81;25.71
65359;BME280;52491;45.900;6.346;2023-03-16T08:36:47;93746.31;;;23.81;25.70
65359;BME280;52491;45.900;6.346;2023-03-16T08:39:13;93745.25;;;23.82;25.79
65359;BME280;52491;45.900;6.346;2023-03-16T08:41:40;93738.06;;;23.82;25.35
65359;BME280;52491;45.900;6.346;2023-03-16T08:44:07;93739.63;;;23.83;25.67
65359;BME280;52491;45.900;6.346;2023-03-16T08:46:33;93736.72;;;23.85;25.52
65359;BME280;52491;45.900;6.346;2023-03-16T08:48:59;93735.66;;;23.86;25.57
65359;BME280;52491;45.900;6.346;2023-03-16T08:51:25;93742.59;;;23.87;25.45
65359;BME280;52491;45.900;6.346;2023-03-16T08:53:51;93737.28;;;23.87;25.39
65359;BME280;52491;45.900;6.346;2023-03-16T08:56:18;93731.94;;;23.87;25.68
65359;BME280;52491;45.900;6.346;2023-03-16T08:58:44;93737.00;;;23.88;25.59
65359;BME280;52491;45.900;6.346;2023-03-16T09:01:14;93740.47;;;23.89;25.42
65359;BME280;52491;45.900;6.346;2023-03-16T09:03:42;93739.94;;;23.87;25.68
65359;BME280;52491;45.900;6.346;2023-03-16T09:06:11;93737.00;;;23.88;25.52
65359;BME280;52491;45.900;6.346;2023-03-16T09:08:38;93739.94;;;23.87;25.51
65359;BME280;52491;45.900;6.346;2023-03-16T09:11:06;93734.34;;;23.88;25.51
65359;BME280;52491;45.900;6.346;2023-03-16T09:13:34;93737.00;;;23.88;25.78
65359;BME280;52491;45.900;6.346;2023-03-16T09:16:00;93735.97;;;23.89;25.72
65359;BME280;52491;45.900;6.346;2023-03-16T09:18:26;93729.84;;;23.89;25.61
65359;BME280;52491;45.900;6.346;2023-03-16T09:20:59;93727.41;;;23.87;25.75
65359;BME280;52491;45.900;6.346;2023-03-16T09:23:26;93734.34;;;23.88;25.75
65359;BME280;52491;45.900;6.346;2023-03-16T09:25:52;93733.53;;;23.88;25.69
65359;BME280;52491;45.900;6.346;2023-03-16T09:28:21;93727.97;;;23.89;25.89
65359;BME280;52491;45.900;6.346;2023-03-16T09:30:46;93736.75;;;23.90;25.74
65359;BME280;52491;45.900;6.346;2023-03-16T09:33:12;93727.97;;;23.89;25.74
65359;BME280;52491;45.900;6.346;2023-03-16T09:35:38;93727.69;;;23.91;25.68
65359;BME280;52491;45.900;6.346;2023-03-16T09:38:03;93725.03;;;23.91;25.65
65359;BME280;52491;45.900;6.346;2023-03-16T09:40:30;93722.38;;;23.91;25.89
65359;BME280;52491;45.900;6.346;2023-03-16T09:45:58;93718.66;;;23.92;25.62
65359;BME280;52491;45.900;6.346;2023-03-16T09:48:27;93713.06;;;23.94;25.84
65359;BME280;52491;45.900;6.346;2023-03-16T09:50:58;93706.13;;;23.93;25.87
65359;BME280;52491;45.900;6.346;2023-03-16T09:56:20;93702.16;;;23.95;25.88
65359;BME280;52491;45.900;6.346;2023-03-16T09:58:49;93696.53;;;23.97;25.72
65359;BME280;52491;45.900;6.346;2023-03-16T10:07:18;93684.84;;;23.98;26.03
65359;BME280;52491;45.900;6.346;2023-03-16T10:09:51;93674.44;;;23.96;25.82
65359;BME280;52491;45.900;6.346;2023-03-16T10:12:21;93679.53;;;23.98;25.98
65359;BME280;52491;45.900;6.346;2023-03-16T10:18:02;93680.88;;;24.00;26.11
65359;BME280;52491;45.900;6.346;2023-03-16T10:20:27;93682.44;;;24.01;26.13
65359;BME280;52491;45.900;6.346;2023-03-16T10:22:57;93676.03;;;24.02;26.07
65359;BME280;52491;45.900;6.346;2023-03-16T10:25:45;93673.13;;;24.04;25.88
65359;BME280;52491;45.900;6.346;2023-03-16T10:28:24;93670.19;;;24.05;25.90
65359;BME280;52491;45.900;6.346;2023-03-16T10:30:52;93669.41;;;24.05;26.04
65359;BME280;52491;45.900;6.346;2023-03-16T10:33:32;93669.41;;;24.05;25.97
65359;BME280;52491;45.900;6.346;2023-03-16T10:36:09;93668.34;;;24.06;26.15
65359;BME280;52491;45.900;6.346;2023-03-16T10:43:43;93669.94;;;24.07;26.25
65359;BME280;52491;45.900;6.346;2023-03-16T10:46:09;93668.88;;;24.08;26.06
65359;BME280;52491;45.900;6.346;2023-03-16T10:48:36;93665.94;;;24.09;26.17
65359;BME280;52491;45.900;6.346;2023-03-16T10:51:10;93664.88;;;24.10;26.02
65359;BME280;52491;45.900;6.346;2023-03-16T10:53:41;93667.53;;;24.10;26.05
65359;BME280;52491;45.900;6.346;2023-03-16T10:56:18;93665.66;;;24.11;25.97
65359;BME280;52491;45.900;6.346;2023-03-16T10:58:44;93675.28;;;24.12;25.92
65359;BME280;52491;45.900;6.346;2023-03-16T11:01:24;93674.19;;;24.13;26.14
65359;BME280;52491;45.900;6.346;2023-03-16T11:03:57;93671.53;;;24.13;26.21
65359;BME280;52491;45.900;6.346;2023-03-16T11:06:31;93672.31;;;24.13;25.99
65359;BME280;52491;45.900;6.346;2023-03-16T11:09:11;93675.28;;;24.12;26.36
65359;BME280;52491;45.900;6.346;2023-03-16T11:11:38;93675.78;;;24.14;26.00
65359;BME280;52491;45.900;6.346;2023-03-16T11:14:11;93675.28;;;24.17;25.93
65359;BME280;52491;45.900;6.346;2023-03-16T11:17:05;93674.47;;;24.17;26.17
65359;BME280;52491;45.900;6.346;2023-03-16T11:19:47;93682.44;;;24.17;26.07
65359;BME280;52491;45.900;6.346;2023-03-16T11:22:17;93679.53;;;24.18;26.16
65359;BME280;52491;45.900;6.346;2023-03-16T11:24:52;93682.19;;;24.18;26.29
65359;BME280;52491;45.900;6.346;2023-03-16T11:27:25;93679.53;;;24.18;26.03
65359;BME280;52491;45.900;6.346;2023-03-16T11:32:35;93680.06;;;24.20;26.23
65359;BME280;52491;45.900;6.346;2023-03-16T11:35:01;93688.84;;;24.21;26.16
65359;BME280;52491;45.900;6.346;2023-03-16T11:37:59;93685.91;;;24.22;26.21
65359;BME280;52491;45.900;6.346;2023-03-16T11:43:17;93687.78;;;24.22;26.25
65359;BME280;52491;45.900;6.346;2023-03-16T11:48:58;93688.06;;;24.20;26.27
65359;BME280;52491;45.900;6.346;2023-03-16T11:51:41;93688.06;;;24.20;26.06
65359;BME280;52491;45.900;6.346;2023-03-16T11:54:34;93685.41;;;24.20;26.17
65359;BME280;52491;45.900;6.346;2023-03-16T12:05:22;93681.66;;;24.21;26.66
65359;BME280;52491;45.900;6.346;2023-03-16T12:08:07;93681.41;;;24.23;26.48
65359;BME280;52491;45.900;6.346;2023-03-16T12:11:02;93681.66;;;24.21;26.77
65359;BME280;52491;45.900;6.346;2023-03-16T12:14:16;93674.47;;;24.22;27.26
65359;BME280;52491;45.900;6.346;2023-03-16T12:16:25;93673.94;;;24.25;27.15
65359;BME280;52491;45.900;6.346;2023-03-16T12:19:02;93671.81;;;24.27;27.27
65359;BME280;52491;45.900;6.346;2023-03-16T12:21:34;93668.88;;;24.28;27.43
65359;BME280;52491;45.900;6.346;2023-03-16T12:24:03;93669.41;;;24.30;27.37
65359;BME280;52491;45.900;6.346;2023-03-16T12:26:38;93664.88;;;24.31;27.52
65359;BME280;52491;45.900;6.346;2023-03-16T12:29:40;93664.63;;;24.32;27.52
65359;BME280;52491;45.900;6.346;2023-03-16T12:32:34;93655.03;;;24.31;27.66
65359;BME280;52491;45.900;6.346;2023-03-16T12:35:08;93649.97;;;24.30;27.84
65359;BME280;52491;45.900;6.346;2023-03-16T12:41:22;93641.72;;;24.31;28.17
65359;BME280;52491;45.900;6.346;2023-03-16T12:49:34;93639.31;;;24.35;28.88
65359;BME280;52491;45.900;6.346;2023-03-16T12:52:07;93624.91;;;24.36;28.94
65359;BME280;52491;45.900;6.346;2023-03-16T12:54:33;93618.53;;;24.37;28.84
65359;BME280;52491;45.900;6.346;2023-03-16T12:57:07;93612.91;;;24.39;29.11
65359;BME280;52491;45.900;6.346;2023-03-16T12:59:39;93612.66;;;24.40;29.07
65359;BME280;52491;45.900;6.346;2023-03-16T13:02:25;93603.88;;;24.40;29.58
65359;BME280;52491;45.900;6.346;2023-03-16T13:05:12;93602.78;;;24.41;29.49
65359;BME280;52491;45.900;6.346;2023-03-16T13:07:47;93597.19;;;24.42;29.62
65359;BME280;52491;45.900;6.346;2023-03-16T13:10:15;93591.63;;;24.44;29.60
65359;BME280;52491;45.900;6.346;2023-03-16T13:12:42;93587.34;;;24.43;29.92
65359;BME280;52491;45.900;6.346;2023-03-16T13:18:04;93580.97;;;24.49;29.86
65359;BME280;52491;45.900;6.346;2023-03-16T13:20:48;93577.22;;;24.50;29.76
65359;BME280;52491;45.900;6.346;2023-03-16T13:26:38;93573.50;;;24.51;29.79
65359;BME280;52491;45.900;6.346;2023-03-16T13:29:20;93562.03;;;24.50;29.48
65359;BME280;52491;45.900;6.346;2023-03-16T13:31:47;93563.63;;;24.51;29.63
65359;BME280;52491;45.900;6.346;2023-03-16T13:34:20;93559.88;;;24.52;29.42
65359;BME280;52491;45.900;6.346;2023-03-16T13:36:46;93555.34;;;24.53;29.19
65359;BME280;52491;45.900;6.346;2023-03-16T13:39:19;93555.34;;;24.53;29.07
65359;BME280;52491;45.900;6.346;2023-03-16T13:42:02;93555.63;;;24.51;25.77
65359;BME280;52491;45.900;6.346;2023-03-16T13:44:30;93556.97;;;24.39;25.36
65359;BME280;52491;45.900;6.346;2023-03-16T13:46:56;93558.03;;;24.38;25.94
65359;BME280;52491;45.900;6.346;2023-03-16T13:49:26;93554.28;;;24.39;26.67
65359;BME280;52491;45.900;6.346;2023-03-16T13:51:53;93558.28;;;24.41;27.05
65359;BME280;52491;45.900;6.346;2023-03-16T13:54:27;93554.31;;;24.44;27.17
65359;BME280;52491;45.900;6.346;2023-03-16T13:57:03;93560.97;;;24.41;27.13
65359;BME280;52491;45.900;6.346;2023-03-16T13:59:32;93563.09;;;24.44;27.25
65359;BME280;52491;45.900;6.346;2023-03-16T14:02:00;93561.22;;;24.45;27.99
65359;BME280;52491;45.900;6.346;2023-03-16T14:04:31;93566.06;;;24.48;27.71
65359;BME280;52491;45.900;6.346;2023-03-16T14:07:01;93566.06;;;24.48;27.85
65359;BME280;52491;45.900;6.346;2023-03-16T14:09:32;93568.72;;;24.48;27.51
65359;BME280;52491;45.900;6.346;2023-03-16T14:11:59;93566.06;;;24.48;28.07